Livermore, CA (94550)

9:57 AM PDT on September 01, 2015 (GMT -0700)
San Vincente - | | Change Station
CLOSE
Current Station
Personal Weather Station
Location: Livermore, CA
Elevation: 541 ft
Nearby Weather Stations

Elev 541 ft 37.66 °N, 121.76 °W | Updated 15 seconds ago

Clear
Clear
68.9 °F
Feels Like 68.9 °F
N
4.0
Wind Variable Wind from West
Gusts 6.0 mph

Today
High -- | Low -- °F
--% Chance of Precip.
Yesterday
High -- | Low -- °F
Precip. -- in
6:37 AM 7:36 PM
Waning Gibbous, 88% visible
Pressure 29.87 in
Visibility 10.0 miles
Clouds Clear
Dew Point 58 °F
Humidity 68%
Rainfall 0.00 in
Snow Depth Not available.
UV 2.3 out of 12
Pollen 6.90 out of 12
Air Quality Not available.
Flu Activity Not available.
METAR KLVK 011653Z VRB03KT 10SM CLR 22/13 A2987 RMK AO2 SLP113 T02220133
Pressure 29.87 in
Visibility 10.0 miles
Clouds Clear
Dew Point 58 °F
Humidity 68%
Rainfall 0.00 in
Snow Depth Not available.
UV 2.3 out of 12
Pollen 6.90 out of 12
Air Quality Not available.
Flu Activity Not available.
METAR KLVK 011653Z VRB03KT 10SM CLR 22/13 A2987 RMK AO2 SLP113 T02220133

10-Day Weather Forecast

×

Almanac

Astronomy

Sep. 01, 2015 Rise Set
Actual Time
Civil Twilight
Nautical Twilight
Astronomical Twilight
Moon
Length of Visible Light
Length of Day
Tomorrow will be .
, % of the Moon is Illuminated

Today's Extremes

State Highs State Lows

Community

WunderPhotos

Upload Photos

1,851,555 photos uploaded!

WunderBlogs® & News

Nearby

Air Quality

  Air Quality AQ Index Pollutant
Not available.

Snow Depth

Station Depth Elevation

Earthquake Activity

City Distance Mag. Time & Date
Minimum magnitude displayed is 2.5.

Coastal Water Temperatures

Place Temperature

Stations

Nearby Weather Stations

Station Location Temp. Windchill Dew Point Humidity Wind Precip. Elev Updated Type